createdAt,value
2022-12-25T00:04:51.704Z,85.65
2022-12-25T00:09:55.915Z,84.19
2022-12-25T00:15:01.542Z,83.89
2022-12-25T00:20:08.222Z,82.05
2022-12-25T00:25:12.339Z,84.77
2022-12-25T00:30:18.342Z,85.08
2022-12-25T00:35:22.243Z,85.40
2022-12-25T00:40:26.393Z,84.33
2022-12-25T00:45:32.409Z,85.79
2022-12-25T00:50:38.855Z,87.00
2022-12-25T00:55:42.882Z,85.37
2022-12-25T01:00:49.618Z,85.32
2022-12-25T01:05:58.964Z,86.79
2022-12-25T01:11:04.096Z,86.38
2022-12-25T01:16:10.842Z,87.58
2022-12-25T01:21:17.411Z,88.51
2022-12-25T01:26:23.270Z,87.28
2022-12-25T01:31:28.920Z,87.76
2022-12-25T01:36:33.628Z,87.60
2022-12-25T01:41:37.587Z,88.05
2022-12-25T01:46:43.627Z,88.13
2022-12-25T01:51:53.411Z,88.76
2022-12-25T01:57:02.532Z,85.50
2022-12-25T02:02:08.145Z,81.08
2022-12-25T02:07:15.489Z,81.87
2022-12-25T02:12:25.493Z,82.24
2022-12-25T02:17:35.891Z,82.63
2022-12-25T02:22:51.873Z,84.31
2022-12-25T02:28:11.305Z,83.44
2022-12-25T02:33:38.257Z,83.28
2022-12-25T02:39:04.612Z,82.28
2022-12-25T02:44:33.997Z,83.75
2022-12-25T02:49:57.859Z,84.85
2022-12-25T02:55:24.851Z,87.17
2022-12-25T03:00:45.994Z,84.65
2022-12-25T03:06:20.109Z,86.05
2022-12-25T03:11:33.657Z,85.04
2022-12-25T03:16:54.150Z,86.20
2022-12-25T03:22:16.833Z,86.06
2022-12-25T03:27:20.879Z,84.65
2022-12-25T03:32:35.175Z,85.96
2022-12-25T03:38:12.055Z,87.12
2022-12-25T03:43:57.805Z,86.79
2022-12-25T03:49:28.720Z,88.43
2022-12-25T03:54:55.848Z,87.90
2022-12-25T04:00:17.388Z,87.56
2022-12-25T04:05:39.971Z,90.59
2022-12-25T04:11:01.050Z,90.80
2022-12-25T04:16:22.761Z,89.96
2022-12-25T04:21:45.478Z,92.51
2022-12-25T04:27:07.161Z,91.09
2022-12-25T04:32:30.105Z,90.82
2022-12-25T04:37:35.428Z,89.29
2022-12-25T04:42:39.445Z,89.36
2022-12-25T04:47:43.440Z,89.97
2022-12-25T04:52:48.900Z,91.47
2022-12-25T04:57:53.261Z,89.14
2022-12-25T05:02:58.982Z,90.71
2022-12-25T05:08:05.938Z,91.94
2022-12-25T05:13:09.963Z,91.54
2022-12-25T05:18:13.914Z,91.87
2022-12-25T05:23:19.597Z,90.44
2022-12-25T05:28:23.570Z,91.31
2022-12-25T05:33:27.609Z,91.91
2022-12-25T05:38:34.122Z,88.77
2022-12-25T05:43:38.083Z,88.44
2022-12-25T05:48:41.997Z,88.01
2022-12-25T05:53:47.384Z,89.41
2022-12-25T05:58:51.416Z,91.82
2022-12-25T06:03:55.776Z,91.06
2022-12-25T06:09:01.137Z,89.49
2022-12-25T06:14:05.160Z,89.87
2022-12-25T06:19:09.516Z,91.37
2022-12-25T06:24:21.246Z,92.77
2022-12-25T06:29:25.848Z,91.30
2022-12-25T06:34:29.832Z,90.19
2022-12-25T06:39:35.305Z,91.24
2022-12-25T06:44:39.681Z,92.72
2022-12-25T06:49:43.688Z,92.70
2022-12-25T06:54:49.297Z,90.73
2022-12-25T06:59:55.284Z,91.16
2022-12-25T07:05:01.296Z,90.75
2022-12-25T07:10:08.050Z,89.46
2022-12-25T07:15:12.328Z,82.49
2022-12-25T07:20:16.332Z,79.72
2022-12-25T07:25:21.975Z,77.01
2022-12-25T07:30:26.195Z,71.17
2022-12-25T07:35:30.190Z,68.47
2022-12-25T07:40:36.531Z,64.88
2022-12-25T07:45:40.621Z,62.16
2022-12-25T07:50:44.623Z,60.97
2022-12-25T07:55:49.958Z,59.96
2022-12-25T08:00:54.020Z,58.92
2022-12-25T08:06:01.293Z,56.51
2022-12-25T08:11:10.705Z,56.60
2022-12-25T08:16:14.448Z,55.87
2022-12-25T08:21:18.425Z,52.44
2022-12-25T08:26:24.962Z,50.40
2022-12-25T08:31:31.234Z,52.33
2022-12-25T08:36:35.385Z,52.00
2022-12-25T08:41:40.836Z,52.62
2022-12-25T08:46:45.022Z,47.93
2022-12-25T08:51:49.489Z,46.25
2022-12-25T08:57:02.105Z,44.89
2022-12-25T09:02:06.943Z,45.24
2022-12-25T09:07:12.378Z,43.17
2022-12-25T09:12:18.135Z,44.42
2022-12-25T09:17:28.309Z,43.81
2022-12-25T09:22:32.627Z,41.04
2022-12-25T09:27:38.065Z,41.13
2022-12-25T09:32:42.984Z,43.26
2022-12-25T09:37:47.165Z,43.87
2022-12-25T09:42:55.178Z,43.49
2022-12-25T09:47:59.184Z,44.97
2022-12-25T09:53:08.794Z,48.26
2022-12-25T09:58:15.146Z,46.61
2022-12-25T10:03:33.161Z,47.73
2022-12-25T10:08:50.955Z,48.94
2022-12-25T10:14:11.725Z,51.63
2022-12-25T10:19:29.865Z,50.71
2022-12-25T10:24:38.067Z,49.18
2022-12-25T10:29:45.593Z,49.05
2022-12-25T10:34:50.380Z,48.09
2022-12-25T10:39:54.947Z,46.18
2022-12-25T10:45:09.189Z,46.95
2022-12-25T10:50:19.687Z,45.37
2022-12-25T10:55:28.799Z,45.45
2022-12-25T11:00:35.079Z,44.38
2022-12-25T11:05:39.199Z,40.88
2022-12-25T11:10:46.526Z,39.66
2022-12-25T11:16:02.597Z,40.60
2022-12-25T11:21:18.600Z,41.83
2022-12-25T11:26:23.355Z,42.83
2022-12-25T11:31:38.949Z,46.21
2022-12-25T11:36:46.521Z,46.83
2022-12-25T11:41:56.248Z,49.90
2022-12-25T11:47:08.680Z,52.70
2022-12-25T11:52:15.423Z,51.21
2022-12-25T11:57:19.719Z,50.67
2022-12-25T12:02:33.877Z,48.98
2022-12-25T12:07:41.176Z,48.79
2022-12-25T12:12:54.460Z,48.01
2022-12-25T12:18:10.518Z,47.50
2022-12-25T12:23:17.765Z,46.53
2022-12-25T12:28:25.552Z,46.33
2022-12-25T12:33:40.168Z,48.83
2022-12-25T12:38:46.169Z,50.87
2022-12-25T12:43:58.290Z,51.33
2022-12-25T12:49:18.950Z,49.23
2022-12-25T12:54:24.870Z,48.52
2022-12-25T12:59:38.257Z,45.04
2022-12-25T13:05:03.839Z,43.32
2022-12-25T13:10:18.840Z,41.42
2022-12-25T13:15:26.152Z,40.70
2022-12-25T13:20:41.328Z,39.81
2022-12-25T13:25:53.887Z,39.76
2022-12-25T13:31:07.848Z,38.34
2022-12-25T13:36:16.027Z,40.05
2022-12-25T13:41:36.279Z,38.96
2022-12-25T13:46:40.379Z,42.05
2022-12-25T13:51:46.696Z,41.88
2022-12-25T13:56:52.898Z,41.64
2022-12-25T14:01:59.993Z,41.58
2022-12-25T14:07:12.248Z,42.88
2022-12-25T14:12:19.396Z,43.12
2022-12-25T14:17:24.345Z,43.82
2022-12-25T14:22:32.232Z,44.55
2022-12-25T14:27:36.236Z,45.45
2022-12-25T14:32:45.301Z,46.45
2022-12-25T14:37:56.816Z,47.57
2022-12-25T14:43:03.093Z,48.88
2022-12-25T14:48:24.418Z,50.45
2022-12-25T14:53:38.711Z,51.62
2022-12-25T14:58:45.111Z,52.75
2022-12-25T15:03:49.995Z,53.51
2022-12-25T15:09:00.430Z,53.32
2022-12-25T15:14:04.497Z,52.67
2022-12-25T15:19:10.538Z,54.14
2022-12-25T15:24:18.493Z,53.57
2022-12-25T15:29:44.704Z,56.21
2022-12-25T15:34:49.956Z,57.08
2022-12-25T15:39:57.392Z,57.11
2022-12-25T15:45:01.880Z,58.35
2022-12-25T15:50:07.407Z,59.47
2022-12-25T15:55:13.576Z,61.11
2022-12-25T16:00:22.657Z,60.92
2022-12-25T16:05:28.102Z,60.33
2022-12-25T16:10:38.620Z,62.21
2022-12-25T16:15:43.134Z,61.90
2022-12-25T16:20:47.568Z,63.67
2022-12-25T16:25:54.000Z,62.44
2022-12-25T16:31:01.124Z,64.62
2022-12-25T16:36:05.419Z,64.91
2022-12-25T16:41:12.532Z,65.00
2022-12-25T16:46:21.990Z,65.15
2022-12-25T16:51:26.128Z,65.26
2022-12-25T16:56:32.761Z,66.55
2022-12-25T17:01:38.238Z,67.42
2022-12-25T17:06:42.415Z,66.92
2022-12-25T17:11:47.839Z,67.47
2022-12-25T17:16:52.574Z,67.20
2022-12-25T17:21:57.565Z,67.97
2022-12-25T17:27:03.126Z,68.11
2022-12-25T17:32:09.573Z,67.65
2022-12-25T17:37:13.791Z,67.33
2022-12-25T17:42:19.149Z,67.70
2022-12-25T17:47:23.120Z,68.09
2022-12-25T17:52:27.431Z,68.08
2022-12-25T17:57:35.353Z,67.43
2022-12-25T18:02:40.178Z,66.67
2022-12-25T18:07:44.373Z,65.59
2022-12-25T18:12:50.183Z,65.75
2022-12-25T18:17:54.348Z,69.28
2022-12-25T18:22:59.861Z,67.72
2022-12-25T18:28:05.773Z,66.07
2022-12-25T18:33:10.255Z,66.84
2022-12-25T18:38:15.895Z,66.65
2022-12-25T18:43:21.655Z,66.23
2022-12-25T18:48:46.123Z,67.93
2022-12-25T18:53:51.673Z,66.68
2022-12-25T18:59:00.731Z,65.76
2022-12-25T19:04:06.306Z,66.03
2022-12-25T19:09:10.941Z,66.02
2022-12-25T19:14:18.630Z,66.44
2022-12-25T19:19:24.349Z,66.27
2022-12-25T19:24:34.494Z,65.75
2022-12-25T19:29:40.147Z,65.96
2022-12-25T19:34:44.150Z,66.34
2022-12-25T19:39:48.546Z,66.43
2022-12-25T19:44:54.031Z,64.92
2022-12-25T19:50:02.609Z,66.08
2022-12-25T19:55:08.309Z,67.92
2022-12-25T20:00:14.840Z,67.39
2022-12-25T20:05:19.021Z,68.72
2022-12-25T20:10:23.223Z,69.78
2022-12-25T20:15:29.106Z,69.45
2022-12-25T20:20:33.491Z,69.16
2022-12-25T20:25:40.815Z,71.01
2022-12-25T20:30:46.561Z,71.08
2022-12-25T20:35:52.201Z,72.27
2022-12-25T20:41:26.408Z,72.74
2022-12-25T20:46:27.147Z,72.38
2022-12-25T20:51:33.098Z,72.12
2022-12-25T20:56:38.109Z,73.28
2022-12-25T21:01:44.137Z,73.47
2022-12-25T21:06:49.247Z,73.71
2022-12-25T21:11:53.788Z,75.23
2022-12-25T21:17:00.889Z,75.36
2022-12-25T21:22:05.319Z,74.74
2022-12-25T21:27:09.963Z,75.38
2022-12-25T21:32:32.254Z,75.99
2022-12-25T21:37:36.407Z,75.94
2022-12-25T21:42:40.492Z,77.12
2022-12-25T21:48:01.635Z,78.41
2022-12-25T21:53:08.527Z,78.39
2022-12-25T21:58:12.728Z,79.18
2022-12-25T22:03:20.755Z,77.67
2022-12-25T22:08:25.048Z,77.73
2022-12-25T22:13:45.976Z,79.73
2022-12-25T22:19:10.373Z,78.28
2022-12-25T22:24:14.862Z,77.80
2022-12-25T22:29:19.027Z,80.18
2022-12-25T22:34:24.566Z,81.07
2022-12-25T22:39:28.969Z,79.70
2022-12-25T22:44:34.365Z,79.88
2022-12-25T22:49:40.074Z,81.03
2022-12-25T22:54:44.867Z,80.38
2022-12-25T22:59:52.017Z,81.15
2022-12-25T23:04:58.272Z,81.57
2022-12-25T23:10:02.694Z,81.36
2022-12-25T23:15:07.907Z,82.23
2022-12-25T23:20:33.894Z,82.02
2022-12-25T23:25:55.618Z,81.18
2022-12-25T23:30:59.850Z,80.80
2022-12-25T23:36:06.669Z,81.10
2022-12-25T23:41:11.301Z,81.01
2022-12-25T23:46:16.355Z,80.26
2022-12-25T23:51:22.107Z,80.55
2022-12-25T23:56:28.736Z,81.01
